sensor_id;sensor_type;location;lat;lon;timestamp;P1;durP1;ratioP1;P2;durP2;ratioP2
18239;SDS011;9244;50.828;4.718;2023-07-20T00:00:45;7.10;;;3.13;;
18239;SDS011;9244;50.828;4.718;2023-07-20T00:03:12;5.15;;;2.88;;
18239;SDS011;9244;50.828;4.718;2023-07-20T00:05:43;3.65;;;2.95;;
18239;SDS011;9244;50.828;4.718;2023-07-20T00:08:10;3.15;;;2.70;;
18239;SDS011;9244;50.828;4.718;2023-07-20T00:10:36;5.00;;;3.05;;
18239;SDS011;9244;50.828;4.718;2023-07-20T00:13:01;6.32;;;3.00;;
18239;SDS011;9244;50.828;4.718;2023-07-20T00:15:27;3.75;;;2.78;;
18239;SDS011;9244;50.828;4.718;2023-07-20T00:17:53;5.72;;;2.95;;
18239;SDS011;9244;50.828;4.718;2023-07-20T00:20:19;5.40;;;2.90;;
18239;SDS011;9244;50.828;4.718;2023-07-20T00:22:44;4.38;;;3.45;;
18239;SDS011;9244;50.828;4.718;2023-07-20T00:25:10;5.03;;;3.05;;
18239;SDS011;9244;50.828;4.718;2023-07-20T00:27:39;5.00;;;2.80;;
18239;SDS011;9244;50.828;4.718;2023-07-20T00:30:04;6.40;;;3.17;;
18239;SDS011;9244;50.828;4.718;2023-07-20T00:32:30;4.57;;;2.80;;
18239;SDS011;9244;50.828;4.718;2023-07-20T00:34:56;6.28;;;3.30;;
18239;SDS011;9244;50.828;4.718;2023-07-20T00:37:22;8.70;;;4.30;;
18239;SDS011;9244;50.828;4.718;2023-07-20T00:39:47;6.85;;;3.42;;
18239;SDS011;9244;50.828;4.718;2023-07-20T00:42:13;4.88;;;3.72;;
18239;SDS011;9244;50.828;4.718;2023-07-20T00:44:38;5.30;;;3.33;;
18239;SDS011;9244;50.828;4.718;2023-07-20T00:47:05;4.05;;;3.03;;
18239;SDS011;9244;50.828;4.718;2023-07-20T00:49:31;7.20;;;3.60;;
18239;SDS011;9244;50.828;4.718;2023-07-20T00:51:57;6.60;;;3.55;;
18239;SDS011;9244;50.828;4.718;2023-07-20T00:54:24;5.32;;;3.15;;
18239;SDS011;9244;50.828;4.718;2023-07-20T00:56:50;5.57;;;3.35;;
18239;SDS011;9244;50.828;4.718;2023-07-20T00:59:18;6.35;;;3.20;;
18239;SDS011;9244;50.828;4.718;2023-07-20T01:01:44;6.03;;;3.20;;
18239;SDS011;9244;50.828;4.718;2023-07-20T01:04:10;6.68;;;3.10;;
18239;SDS011;9244;50.828;4.718;2023-07-20T01:09:08;6.13;;;3.63;;
18239;SDS011;9244;50.828;4.718;2023-07-20T01:12:04;6.13;;;3.28;;
18239;SDS011;9244;50.828;4.718;2023-07-20T01:14:30;6.60;;;3.83;;
18239;SDS011;9244;50.828;4.718;2023-07-20T01:16:57;5.35;;;3.03;;
18239;SDS011;9244;50.828;4.718;2023-07-20T01:19:23;6.85;;;3.90;;
18239;SDS011;9244;50.828;4.718;2023-07-20T01:32:50;4.57;;;3.22;;
18239;SDS011;9244;50.828;4.718;2023-07-20T01:35:19;5.47;;;3.60;;
18239;SDS011;9244;50.828;4.718;2023-07-20T01:37:48;5.25;;;3.40;;
18239;SDS011;9244;50.828;4.718;2023-07-20T01:40:15;7.18;;;3.30;;
18239;SDS011;9244;50.828;4.718;2023-07-20T01:42:48;6.43;;;3.60;;
18239;SDS011;9244;50.828;4.718;2023-07-20T01:45:14;6.28;;;3.42;;
18239;SDS011;9244;50.828;4.718;2023-07-20T01:47:39;5.93;;;3.38;;
18239;SDS011;9244;50.828;4.718;2023-07-20T01:50:06;5.90;;;2.95;;
18239;SDS011;9244;50.828;4.718;2023-07-20T01:52:32;5.38;;;3.10;;
18239;SDS011;9244;50.828;4.718;2023-07-20T01:54:57;6.35;;;3.45;;
18239;SDS011;9244;50.828;4.718;2023-07-20T01:57:23;4.25;;;3.50;;
18239;SDS011;9244;50.828;4.718;2023-07-20T01:59:49;7.60;;;3.50;;
18239;SDS011;9244;50.828;4.718;2023-07-20T02:02:14;7.13;;;3.60;;
18239;SDS011;9244;50.828;4.718;2023-07-20T02:04:40;6.68;;;3.42;;
18239;SDS011;9244;50.828;4.718;2023-07-20T02:07:05;5.70;;;3.58;;
18239;SDS011;9244;50.828;4.718;2023-07-20T02:09:31;5.55;;;3.38;;
18239;SDS011;9244;50.828;4.718;2023-07-20T02:11:57;7.43;;;4.38;;
18239;SDS011;9244;50.828;4.718;2023-07-20T02:14:22;8.52;;;3.33;;
18239;SDS011;9244;50.828;4.718;2023-07-20T02:16:48;8.18;;;3.83;;
18239;SDS011;9244;50.828;4.718;2023-07-20T02:19:17;9.68;;;4.53;;
18239;SDS011;9244;50.828;4.718;2023-07-20T02:21:43;6.07;;;3.67;;
18239;SDS011;9244;50.828;4.718;2023-07-20T02:24:09;7.50;;;3.17;;
18239;SDS011;9244;50.828;4.718;2023-07-20T02:26:34;5.88;;;3.97;;
18239;SDS011;9244;50.828;4.718;2023-07-20T02:29:00;10.13;;;4.30;;
18239;SDS011;9244;50.828;4.718;2023-07-20T02:31:28;8.35;;;4.00;;
18239;SDS011;9244;50.828;4.718;2023-07-20T02:33:54;8.80;;;4.03;;
18239;SDS011;9244;50.828;4.718;2023-07-20T02:36:20;6.97;;;4.40;;
18239;SDS011;9244;50.828;4.718;2023-07-20T02:38:45;9.73;;;4.43;;
18239;SDS011;9244;50.828;4.718;2023-07-20T02:41:11;7.03;;;4.15;;
18239;SDS011;9244;50.828;4.718;2023-07-20T02:43:38;6.63;;;4.53;;
18239;SDS011;9244;50.828;4.718;2023-07-20T02:46:03;6.88;;;4.50;;
18239;SDS011;9244;50.828;4.718;2023-07-20T02:48:29;7.20;;;4.30;;
18239;SDS011;9244;50.828;4.718;2023-07-20T02:50:54;5.93;;;4.10;;
18239;SDS011;9244;50.828;4.718;2023-07-20T02:53:20;6.95;;;4.30;;
18239;SDS011;9244;50.828;4.718;2023-07-20T02:55:46;8.85;;;4.53;;
18239;SDS011;9244;50.828;4.718;2023-07-20T02:58:12;8.20;;;5.00;;
18239;SDS011;9244;50.828;4.718;2023-07-20T03:00:37;8.68;;;4.47;;
18239;SDS011;9244;50.828;4.718;2023-07-20T03:03:03;9.00;;;4.40;;
18239;SDS011;9244;50.828;4.718;2023-07-20T03:05:28;8.07;;;4.82;;
18239;SDS011;9244;50.828;4.718;2023-07-20T03:07:55;10.40;;;4.70;;
18239;SDS011;9244;50.828;4.718;2023-07-20T03:10:21;6.38;;;4.57;;
18239;SDS011;9244;50.828;4.718;2023-07-20T03:12:46;7.15;;;4.70;;
18239;SDS011;9244;50.828;4.718;2023-07-20T03:15:12;8.65;;;4.07;;
18239;SDS011;9244;50.828;4.718;2023-07-20T03:17:37;10.32;;;4.85;;
18239;SDS011;9244;50.828;4.718;2023-07-20T03:20:03;7.85;;;4.50;;
18239;SDS011;9244;50.828;4.718;2023-07-20T03:22:33;8.00;;;4.43;;
18239;SDS011;9244;50.828;4.718;2023-07-20T03:24:59;10.68;;;5.10;;
18239;SDS011;9244;50.828;4.718;2023-07-20T03:27:25;8.85;;;4.40;;
18239;SDS011;9244;50.828;4.718;2023-07-20T03:29:50;8.32;;;4.72;;
18239;SDS011;9244;50.828;4.718;2023-07-20T03:32:16;9.60;;;5.20;;
18239;SDS011;9244;50.828;4.718;2023-07-20T03:34:41;6.80;;;5.30;;
18239;SDS011;9244;50.828;4.718;2023-07-20T03:37:08;9.95;;;5.28;;
18239;SDS011;9244;50.828;4.718;2023-07-20T03:39:34;10.88;;;5.30;;
18239;SDS011;9244;50.828;4.718;2023-07-20T03:41:59;7.93;;;5.68;;
18239;SDS011;9244;50.828;4.718;2023-07-20T03:44:25;6.97;;;5.38;;
18239;SDS011;9244;50.828;4.718;2023-07-20T03:46:50;14.48;;;5.55;;
18239;SDS011;9244;50.828;4.718;2023-07-20T03:49:16;8.70;;;6.00;;
18239;SDS011;9244;50.828;4.718;2023-07-20T03:51:42;12.38;;;6.32;;
18239;SDS011;9244;50.828;4.718;2023-07-20T03:54:08;9.30;;;6.25;;
18239;SDS011;9244;50.828;4.718;2023-07-20T03:56:34;9.95;;;6.10;;
18239;SDS011;9244;50.828;4.718;2023-07-20T03:59:00;9.10;;;6.45;;
18239;SDS011;9244;50.828;4.718;2023-07-20T04:01:26;8.85;;;6.07;;
18239;SDS011;9244;50.828;4.718;2023-07-20T04:03:52;13.52;;;6.53;;
18239;SDS011;9244;50.828;4.718;2023-07-20T04:06:17;7.60;;;6.32;;
18239;SDS011;9244;50.828;4.718;2023-07-20T04:08:44;13.38;;;6.68;;
18239;SDS011;9244;50.828;4.718;2023-07-20T04:11:12;9.20;;;6.20;;
18239;SDS011;9244;50.828;4.718;2023-07-20T04:13:37;7.18;;;5.97;;
18239;SDS011;9244;50.828;4.718;2023-07-20T04:16:04;10.25;;;6.50;;
18239;SDS011;9244;50.828;4.718;2023-07-20T04:18:29;11.15;;;6.80;;
18239;SDS011;9244;50.828;4.718;2023-07-20T04:20:55;13.82;;;6.75;;
18239;SDS011;9244;50.828;4.718;2023-07-20T04:23:21;7.32;;;5.70;;
18239;SDS011;9244;50.828;4.718;2023-07-20T04:25:46;12.25;;;5.93;;
18239;SDS011;9244;50.828;4.718;2023-07-20T04:28:12;9.45;;;7.00;;
18239;SDS011;9244;50.828;4.718;2023-07-20T04:30:38;9.65;;;6.35;;
18239;SDS011;9244;50.828;4.718;2023-07-20T04:33:05;10.63;;;6.72;;
18239;SDS011;9244;50.828;4.718;2023-07-20T04:35:47;11.95;;;6.95;;
18239;SDS011;9244;50.828;4.718;2023-07-20T04:38:13;7.78;;;6.18;;
18239;SDS011;9244;50.828;4.718;2023-07-20T04:40:45;8.75;;;6.07;;
18239;SDS011;9244;50.828;4.718;2023-07-20T04:43:16;12.13;;;6.95;;
18239;SDS011;9244;50.828;4.718;2023-07-20T04:45:42;11.45;;;7.25;;
18239;SDS011;9244;50.828;4.718;2023-07-20T04:48:09;10.60;;;6.75;;
18239;SDS011;9244;50.828;4.718;2023-07-20T04:50:37;12.10;;;7.05;;
18239;SDS011;9244;50.828;4.718;2023-07-20T04:53:03;11.13;;;6.45;;
18239;SDS011;9244;50.828;4.718;2023-07-20T04:55:28;11.35;;;7.38;;
18239;SDS011;9244;50.828;4.718;2023-07-20T04:57:54;9.57;;;6.15;;
18239;SDS011;9244;50.828;4.718;2023-07-20T05:00:20;9.40;;;6.85;;
18239;SDS011;9244;50.828;4.718;2023-07-20T05:02:46;8.90;;;6.95;;
18239;SDS011;9244;50.828;4.718;2023-07-20T05:05:13;9.10;;;7.60;;
18239;SDS011;9244;50.828;4.718;2023-07-20T05:07:39;10.93;;;7.43;;
18239;SDS011;9244;50.828;4.718;2023-07-20T05:10:05;9.98;;;6.88;;
18239;SDS011;9244;50.828;4.718;2023-07-20T05:12:32;7.95;;;7.18;;
18239;SDS011;9244;50.828;4.718;2023-07-20T05:14:57;14.02;;;7.93;;
18239;SDS011;9244;50.828;4.718;2023-07-20T05:17:23;11.48;;;7.80;;
18239;SDS011;9244;50.828;4.718;2023-07-20T05:19:49;12.25;;;7.38;;
18239;SDS011;9244;50.828;4.718;2023-07-20T05:22:16;10.90;;;6.78;;
18239;SDS011;9244;50.828;4.718;2023-07-20T05:24:42;9.20;;;7.30;;
18239;SDS011;9244;50.828;4.718;2023-07-20T05:27:08;10.05;;;7.25;;
18239;SDS011;9244;50.828;4.718;2023-07-20T05:29:33;14.18;;;8.32;;
18239;SDS011;9244;50.828;4.718;2023-07-20T05:31:59;11.07;;;8.18;;
18239;SDS011;9244;50.828;4.718;2023-07-20T05:34:28;13.70;;;8.98;;
18239;SDS011;9244;50.828;4.718;2023-07-20T05:36:54;12.98;;;8.43;;
18239;SDS011;9244;50.828;4.718;2023-07-20T05:39:20;12.52;;;8.68;;
18239;SDS011;9244;50.828;4.718;2023-07-20T05:41:46;12.35;;;8.88;;
18239;SDS011;9244;50.828;4.718;2023-07-20T05:44:12;11.80;;;8.77;;
18239;SDS011;9244;50.828;4.718;2023-07-20T05:46:37;12.10;;;8.10;;
18239;SDS011;9244;50.828;4.718;2023-07-20T05:49:03;9.98;;;7.88;;
18239;SDS011;9244;50.828;4.718;2023-07-20T05:51:29;11.65;;;8.65;;
18239;SDS011;9244;50.828;4.718;2023-07-20T05:53:54;10.25;;;7.90;;
18239;SDS011;9244;50.828;4.718;2023-07-20T05:56:20;10.25;;;7.75;;
18239;SDS011;9244;50.828;4.718;2023-07-20T05:58:45;11.27;;;8.70;;
18239;SDS011;9244;50.828;4.718;2023-07-20T06:01:11;13.15;;;9.02;;
18239;SDS011;9244;50.828;4.718;2023-07-20T06:03:37;10.13;;;8.65;;
18239;SDS011;9244;50.828;4.718;2023-07-20T06:06:03;11.70;;;8.88;;
18239;SDS011;9244;50.828;4.718;2023-07-20T06:08:31;10.70;;;9.32;;
18239;SDS011;9244;50.828;4.718;2023-07-20T06:10:57;11.23;;;9.10;;
18239;SDS011;9244;50.828;4.718;2023-07-20T06:13:23;11.52;;;9.05;;
18239;SDS011;9244;50.828;4.718;2023-07-20T06:15:49;11.27;;;8.90;;
18239;SDS011;9244;50.828;4.718;2023-07-20T06:18:14;9.77;;;8.60;;
18239;SDS011;9244;50.828;4.718;2023-07-20T06:20:40;12.38;;;8.65;;
18239;SDS011;9244;50.828;4.718;2023-07-20T06:23:06;13.25;;;9.00;;
18239;SDS011;9244;50.828;4.718;2023-07-20T06:25:32;11.90;;;8.50;;
18239;SDS011;9244;50.828;4.718;2023-07-20T06:27:58;15.57;;;9.45;;
18239;SDS011;9244;50.828;4.718;2023-07-20T06:30:23;13.40;;;8.73;;
18239;SDS011;9244;50.828;4.718;2023-07-20T06:32:49;11.18;;;8.57;;
18239;SDS011;9244;50.828;4.718;2023-07-20T06:35:15;12.30;;;8.38;;
18239;SDS011;9244;50.828;4.718;2023-07-20T06:37:41;10.10;;;8.70;;
18239;SDS011;9244;50.828;4.718;2023-07-20T06:40:07;12.88;;;9.05;;
18239;SDS011;9244;50.828;4.718;2023-07-20T06:42:37;10.18;;;8.32;;
18239;SDS011;9244;50.828;4.718;2023-07-20T06:45:02;13.15;;;9.25;;
18239;SDS011;9244;50.828;4.718;2023-07-20T06:47:28;12.70;;;8.75;;
18239;SDS011;9244;50.828;4.718;2023-07-20T06:49:54;11.15;;;9.07;;
18239;SDS011;9244;50.828;4.718;2023-07-20T06:52:19;13.50;;;9.07;;
18239;SDS011;9244;50.828;4.718;2023-07-20T06:54:45;11.23;;;10.02;;
18239;SDS011;9244;50.828;4.718;2023-07-20T06:57:11;12.25;;;9.93;;
18239;SDS011;9244;50.828;4.718;2023-07-20T06:59:36;10.50;;;9.45;;
18239;SDS011;9244;50.828;4.718;2023-07-20T07:02:02;12.85;;;9.50;;
18239;SDS011;9244;50.828;4.718;2023-07-20T07:04:28;10.75;;;9.63;;
18239;SDS011;9244;50.828;4.718;2023-07-20T07:06:54;17.38;;;9.57;;
18239;SDS011;9244;50.828;4.718;2023-07-20T07:09:19;10.38;;;9.38;;
18239;SDS011;9244;50.828;4.718;2023-07-20T07:11:45;10.90;;;9.32;;
18239;SDS011;9244;50.828;4.718;2023-07-20T07:14:11;10.52;;;9.43;;
18239;SDS011;9244;50.828;4.718;2023-07-20T07:16:37;10.18;;;9.15;;
18239;SDS011;9244;50.828;4.718;2023-07-20T07:19:03;11.38;;;10.20;;
18239;SDS011;9244;50.828;4.718;2023-07-20T07:21:30;12.13;;;10.95;;
18239;SDS011;9244;50.828;4.718;2023-07-20T07:23:56;10.82;;;9.88;;
18239;SDS011;9244;50.828;4.718;2023-07-20T07:26:22;11.20;;;10.02;;
18239;SDS011;9244;50.828;4.718;2023-07-20T07:28:49;12.20;;;10.70;;
18239;SDS011;9244;50.828;4.718;2023-07-20T07:31:14;11.82;;;10.52;;
18239;SDS011;9244;50.828;4.718;2023-07-20T07:33:40;11.13;;;9.95;;
18239;SDS011;9244;50.828;4.718;2023-07-20T07:36:06;10.85;;;9.85;;
18239;SDS011;9244;50.828;4.718;2023-07-20T07:38:31;11.45;;;10.10;;
18239;SDS011;9244;50.828;4.718;2023-07-20T07:40:57;10.52;;;9.43;;
18239;SDS011;9244;50.828;4.718;2023-07-20T07:43:23;10.60;;;9.70;;
18239;SDS011;9244;50.828;4.718;2023-07-20T07:45:49;10.10;;;9.20;;
18239;SDS011;9244;50.828;4.718;2023-07-20T07:48:15;9.95;;;8.95;;
18239;SDS011;9244;50.828;4.718;2023-07-20T07:50:40;9.82;;;8.85;;
18239;SDS011;9244;50.828;4.718;2023-07-20T07:53:07;8.73;;;7.90;;
18239;SDS011;9244;50.828;4.718;2023-07-20T07:55:33;9.52;;;7.45;;
18239;SDS011;9244;50.828;4.718;2023-07-20T07:58:00;8.18;;;7.45;;
18239;SDS011;9244;50.828;4.718;2023-07-20T08:00:26;8.07;;;7.28;;
18239;SDS011;9244;50.828;4.718;2023-07-20T08:02:51;7.00;;;6.32;;
18239;SDS011;9244;50.828;4.718;2023-07-20T08:05:17;6.00;;;5.47;;
18239;SDS011;9244;50.828;4.718;2023-07-20T08:07:43;6.85;;;5.90;;
18239;SDS011;9244;50.828;4.718;2023-07-20T08:10:09;6.47;;;5.88;;
18239;SDS011;9244;50.828;4.718;2023-07-20T08:12:34;5.28;;;4.85;;
18239;SDS011;9244;50.828;4.718;2023-07-20T08:15:00;5.35;;;4.60;;
18239;SDS011;9244;50.828;4.718;2023-07-20T08:17:26;5.68;;;4.97;;
18239;SDS011;9244;50.828;4.718;2023-07-20T08:19:51;5.63;;;4.80;;
18239;SDS011;9244;50.828;4.718;2023-07-20T08:22:17;4.50;;;3.80;;
18239;SDS011;9244;50.828;4.718;2023-07-20T08:24:43;4.07;;;3.70;;
18239;SDS011;9244;50.828;4.718;2023-07-20T08:27:09;4.68;;;3.83;;
18239;SDS011;9244;50.828;4.718;2023-07-20T08:29:35;4.75;;;3.95;;
18239;SDS011;9244;50.828;4.718;2023-07-20T08:32:01;6.68;;;3.95;;
18239;SDS011;9244;50.828;4.718;2023-07-20T08:34:27;4.15;;;3.13;;
18239;SDS011;9244;50.828;4.718;2023-07-20T08:36:53;4.80;;;3.83;;
18239;SDS011;9244;50.828;4.718;2023-07-20T08:39:18;5.30;;;4.80;;
18239;SDS011;9244;50.828;4.718;2023-07-20T08:41:47;4.57;;;4.28;;
18239;SDS011;9244;50.828;4.718;2023-07-20T08:44:13;5.32;;;4.88;;
18239;SDS011;9244;50.828;4.718;2023-07-20T08:46:40;4.65;;;4.25;;
18239;SDS011;9244;50.828;4.718;2023-07-20T08:49:07;3.33;;;3.03;;
18239;SDS011;9244;50.828;4.718;2023-07-20T08:51:33;4.57;;;3.60;;
18239;SDS011;9244;50.828;4.718;2023-07-20T08:54:01;4.13;;;2.90;;
18239;SDS011;9244;50.828;4.718;2023-07-20T08:56:27;4.00;;;3.60;;
18239;SDS011;9244;50.828;4.718;2023-07-20T08:58:54;3.13;;;2.90;;
18239;SDS011;9244;50.828;4.718;2023-07-20T09:01:21;3.85;;;3.30;;
18239;SDS011;9244;50.828;4.718;2023-07-20T09:03:47;4.47;;;3.47;;
18239;SDS011;9244;50.828;4.718;2023-07-20T09:06:14;5.15;;;3.00;;
18239;SDS011;9244;50.828;4.718;2023-07-20T09:08:40;3.00;;;2.20;;
18239;SDS011;9244;50.828;4.718;2023-07-20T09:11:06;3.20;;;2.50;;
18239;SDS011;9244;50.828;4.718;2023-07-20T09:13:33;2.65;;;2.40;;
18239;SDS011;9244;50.828;4.718;2023-07-20T09:15:59;2.33;;;2.10;;
18239;SDS011;9244;50.828;4.718;2023-07-20T09:18:25;2.60;;;2.40;;
18239;SDS011;9244;50.828;4.718;2023-07-20T09:21:12;2.20;;;2.00;;
18239;SDS011;9244;50.828;4.718;2023-07-20T09:23:42;3.47;;;2.28;;
18239;SDS011;9244;50.828;4.718;2023-07-20T09:26:11;2.25;;;1.65;;
18239;SDS011;9244;50.828;4.718;2023-07-20T09:28:56;1.92;;;1.83;;
18239;SDS011;9244;50.828;4.718;2023-07-20T09:31:22;3.08;;;2.65;;
18239;SDS011;9244;50.828;4.718;2023-07-20T09:33:48;3.97;;;2.28;;
18239;SDS011;9244;50.828;4.718;2023-07-20T09:36:14;2.35;;;1.60;;
18239;SDS011;9244;50.828;4.718;2023-07-20T09:38:43;2.53;;;1.80;;
18239;SDS011;9244;50.828;4.718;2023-07-20T09:41:15;1.70;;;1.60;;
18239;SDS011;9244;50.828;4.718;2023-07-20T09:43:40;2.33;;;2.13;;
18239;SDS011;9244;50.828;4.718;2023-07-20T09:46:07;2.55;;;1.90;;
18239;SDS011;9244;50.828;4.718;2023-07-20T09:48:32;1.88;;;1.70;;
18239;SDS011;9244;50.828;4.718;2023-07-20T09:50:58;3.83;;;1.77;;
18239;SDS011;9244;50.828;4.718;2023-07-20T09:53:25;2.90;;;2.10;;
18239;SDS011;9244;50.828;4.718;2023-07-20T09:55:52;3.40;;;1.80;;
18239;SDS011;9244;50.828;4.718;2023-07-20T09:58:18;2.10;;;1.80;;
18239;SDS011;9244;50.828;4.718;2023-07-20T10:00:45;3.58;;;1.60;;
18239;SDS011;9244;50.828;4.718;2023-07-20T10:03:18;2.38;;;1.40;;
18239;SDS011;9244;50.828;4.718;2023-07-20T10:05:52;1.70;;;1.20;;
18239;SDS011;9244;50.828;4.718;2023-07-20T10:08:28;1.88;;;1.60;;
18239;SDS011;9244;50.828;4.718;2023-07-20T10:10:55;1.40;;;1.30;;
18239;SDS011;9244;50.828;4.718;2023-07-20T10:13:25;2.53;;;1.50;;
18239;SDS011;9244;50.828;4.718;2023-07-20T10:15:58;1.80;;;1.02;;
18239;SDS011;9244;50.828;4.718;2023-07-20T10:18:41;1.48;;;1.10;;
18239;SDS011;9244;50.828;4.718;2023-07-20T10:21:14;1.85;;;1.00;;
18239;SDS011;9244;50.828;4.718;2023-07-20T10:23:42;1.10;;;1.00;;
18239;SDS011;9244;50.828;4.718;2023-07-20T10:26:08;1.83;;;1.00;;
18239;SDS011;9244;50.828;4.718;2023-07-20T10:28:35;1.38;;;1.25;;
18239;SDS011;9244;50.828;4.718;2023-07-20T10:31:02;1.70;;;1.20;;
18239;SDS011;9244;50.828;4.718;2023-07-20T10:33:28;1.40;;;1.30;;
18239;SDS011;9244;50.828;4.718;2023-07-20T10:36:00;1.67;;;1.30;;
18239;SDS011;9244;50.828;4.718;2023-07-20T10:38:42;2.05;;;1.10;;
18239;SDS011;9244;50.828;4.718;2023-07-20T10:41:27;1.25;;;1.15;;
18239;SDS011;9244;50.828;4.718;2023-07-20T10:44:01;1.23;;;1.00;;
18239;SDS011;9244;50.828;4.718;2023-07-20T10:49:05;1.40;;;1.13;;
18239;SDS011;9244;50.828;4.718;2023-07-20T10:56:48;2.22;;;1.40;;
18239;SDS011;9244;50.828;4.718;2023-07-20T11:01:49;1.98;;;1.10;;
18239;SDS011;9244;50.828;4.718;2023-07-20T11:04:20;1.95;;;1.05;;
18239;SDS011;9244;50.828;4.718;2023-07-20T11:07:06;1.38;;;1.10;;
18239;SDS011;9244;50.828;4.718;2023-07-20T11:09:35;1.38;;;1.08;;
18239;SDS011;9244;50.828;4.718;2023-07-20T11:12:10;2.08;;;1.17;;
18239;SDS011;9244;50.828;4.718;2023-07-20T11:14:41;1.48;;;1.17;;
18239;SDS011;9244;50.828;4.718;2023-07-20T11:17:22;1.65;;;1.35;;
18239;SDS011;9244;50.828;4.718;2023-07-20T11:19:57;2.78;;;1.17;;
18239;SDS011;9244;50.828;4.718;2023-07-20T11:22:28;2.00;;;1.17;;
18239;SDS011;9244;50.828;4.718;2023-07-20T11:24:56;1.45;;;1.13;;
18239;SDS011;9244;50.828;4.718;2023-07-20T11:27:23;1.77;;;1.40;;
18239;SDS011;9244;50.828;4.718;2023-07-20T11:29:49;1.40;;;1.20;;
18239;SDS011;9244;50.828;4.718;2023-07-20T11:32:21;3.50;;;1.42;;
18239;SDS011;9244;50.828;4.718;2023-07-20T11:34:48;2.90;;;1.23;;
18239;SDS011;9244;50.828;4.718;2023-07-20T11:37:14;1.27;;;1.10;;
18239;SDS011;9244;50.828;4.718;2023-07-20T11:39:41;3.38;;;1.10;;
18239;SDS011;9244;50.828;4.718;2023-07-20T11:42:07;1.75;;;1.17;;
18239;SDS011;9244;50.828;4.718;2023-07-20T11:44:33;1.92;;;1.08;;
18239;SDS011;9244;50.828;4.718;2023-07-20T11:47:17;1.58;;;1.20;;
18239;SDS011;9244;50.828;4.718;2023-07-20T11:49:43;2.63;;;1.33;;
18239;SDS011;9244;50.828;4.718;2023-07-20T11:52:14;0.98;;;0.90;;
18239;SDS011;9244;50.828;4.718;2023-07-20T11:54:41;1.80;;;1.27;;
18239;SDS011;9244;50.828;4.718;2023-07-20T11:57:15;1.70;;;1.20;;
18239;SDS011;9244;50.828;4.718;2023-07-20T12:02:25;2.08;;;1.17;;
18239;SDS011;9244;50.828;4.718;2023-07-20T12:04:52;1.42;;;0.93;;
18239;SDS011;9244;50.828;4.718;2023-07-20T12:07:19;1.65;;;1.10;;
18239;SDS011;9244;50.828;4.718;2023-07-20T12:10:02;3.35;;;1.20;;
18239;SDS011;9244;50.828;4.718;2023-07-20T12:12:37;2.30;;;1.20;;
18239;SDS011;9244;50.828;4.718;2023-07-20T12:15:16;1.77;;;1.20;;
18239;SDS011;9244;50.828;4.718;2023-07-20T12:17:44;1.60;;;1.30;;
18239;SDS011;9244;50.828;4.718;2023-07-20T12:20:11;2.33;;;1.30;;
18239;SDS011;9244;50.828;4.718;2023-07-20T12:22:40;2.53;;;1.58;;
18239;SDS011;9244;50.828;4.718;2023-07-20T12:25:08;3.05;;;1.23;;
18239;SDS011;9244;50.828;4.718;2023-07-20T12:27:37;1.42;;;1.30;;
18239;SDS011;9244;50.828;4.718;2023-07-20T12:30:06;1.73;;;1.42;;
18239;SDS011;9244;50.828;4.718;2023-07-20T12:32:33;1.60;;;1.05;;
18239;SDS011;9244;50.828;4.718;2023-07-20T12:34:58;1.52;;;1.27;;
18239;SDS011;9244;50.828;4.718;2023-07-20T12:37:25;2.58;;;1.17;;
18239;SDS011;9244;50.828;4.718;2023-07-20T12:39:51;2.40;;;1.10;;
18239;SDS011;9244;50.828;4.718;2023-07-20T12:42:17;2.35;;;1.20;;
18239;SDS011;9244;50.828;4.718;2023-07-20T12:44:43;3.50;;;1.15;;
18239;SDS011;9244;50.828;4.718;2023-07-20T12:47:09;0.98;;;0.85;;
18239;SDS011;9244;50.828;4.718;2023-07-20T12:49:34;1.45;;;1.02;;
18239;SDS011;9244;50.828;4.718;2023-07-20T12:52:00;1.40;;;1.00;;
18239;SDS011;9244;50.828;4.718;2023-07-20T12:54:26;0.85;;;0.85;;
18239;SDS011;9244;50.828;4.718;2023-07-20T12:56:51;1.25;;;1.05;;
18239;SDS011;9244;50.828;4.718;2023-07-20T12:59:17;1.80;;;1.02;;
18239;SDS011;9244;50.828;4.718;2023-07-20T13:01:43;1.38;;;1.02;;
18239;SDS011;9244;50.828;4.718;2023-07-20T13:04:09;1.33;;;1.20;;
18239;SDS011;9244;50.828;4.718;2023-07-20T13:06:35;1.75;;;1.00;;
18239;SDS011;9244;50.828;4.718;2023-07-20T13:09:01;2.28;;;1.38;;
18239;SDS011;9244;50.828;4.718;2023-07-20T13:11:27;1.35;;;1.00;;
18239;SDS011;9244;50.828;4.718;2023-07-20T13:13:52;1.98;;;1.02;;
18239;SDS011;9244;50.828;4.718;2023-07-20T13:16:18;1.70;;;1.00;;
18239;SDS011;9244;50.828;4.718;2023-07-20T13:18:44;1.77;;;1.23;;
18239;SDS011;9244;50.828;4.718;2023-07-20T13:21:09;1.15;;;1.05;;
18239;SDS011;9244;50.828;4.718;2023-07-20T13:23:36;1.80;;;1.08;;
18239;SDS011;9244;50.828;4.718;2023-07-20T13:26:04;2.25;;;1.10;;
18239;SDS011;9244;50.828;4.718;2023-07-20T13:28:30;1.45;;;1.23;;
18239;SDS011;9244;50.828;4.718;2023-07-20T13:30:55;1.80;;;1.50;;
18239;SDS011;9244;50.828;4.718;2023-07-20T13:33:21;1.40;;;1.20;;
18239;SDS011;9244;50.828;4.718;2023-07-20T13:35:46;1.50;;;1.35;;
18239;SDS011;9244;50.828;4.718;2023-07-20T13:38:12;1.15;;;1.05;;
18239;SDS011;9244;50.828;4.718;2023-07-20T13:40:38;3.90;;;1.48;;
18239;SDS011;9244;50.828;4.718;2023-07-20T13:43:04;2.17;;;1.42;;
18239;SDS011;9244;50.828;4.718;2023-07-20T13:45:29;3.38;;;1.20;;
18239;SDS011;9244;50.828;4.718;2023-07-20T13:47:55;1.10;;;1.10;;
18239;SDS011;9244;50.828;4.718;2023-07-20T13:50:20;1.60;;;1.20;;
18239;SDS011;9244;50.828;4.718;2023-07-20T13:52:46;1.70;;;1.38;;
18239;SDS011;9244;50.828;4.718;2023-07-20T13:55:12;1.85;;;1.17;;
18239;SDS011;9244;50.828;4.718;2023-07-20T13:57:38;2.53;;;1.20;;
18239;SDS011;9244;50.828;4.718;2023-07-20T14:00:04;3.38;;;1.42;;
18239;SDS011;9244;50.828;4.718;2023-07-20T14:02:30;2.00;;;1.23;;
18239;SDS011;9244;50.828;4.718;2023-07-20T14:04:55;2.65;;;1.27;;
18239;SDS011;9244;50.828;4.718;2023-07-20T14:07:21;2.83;;;1.10;;
18239;SDS011;9244;50.828;4.718;2023-07-20T14:09:47;1.83;;;1.20;;
18239;SDS011;9244;50.828;4.718;2023-07-20T14:12:13;1.48;;;0.98;;
18239;SDS011;9244;50.828;4.718;2023-07-20T14:14:39;1.85;;;1.30;;
18239;SDS011;9244;50.828;4.718;2023-07-20T14:17:06;2.38;;;0.80;;
18239;SDS011;9244;50.828;4.718;2023-07-20T14:19:32;1.67;;;1.00;;
18239;SDS011;9244;50.828;4.718;2023-07-20T14:21:57;1.40;;;1.30;;
18239;SDS011;9244;50.828;4.718;2023-07-20T14:24:24;2.25;;;1.23;;
18239;SDS011;9244;50.828;4.718;2023-07-20T14:26:53;1.95;;;1.33;;
18239;SDS011;9244;50.828;4.718;2023-07-20T14:29:19;1.83;;;1.27;;
18239;SDS011;9244;50.828;4.718;2023-07-20T14:31:45;3.15;;;1.35;;
18239;SDS011;9244;50.828;4.718;2023-07-20T14:34:16;2.95;;;1.40;;
18239;SDS011;9244;50.828;4.718;2023-07-20T14:36:43;2.47;;;1.25;;
18239;SDS011;9244;50.828;4.718;2023-07-20T14:39:09;1.30;;;1.20;;
18239;SDS011;9244;50.828;4.718;2023-07-20T14:41:35;1.50;;;1.10;;
18239;SDS011;9244;50.828;4.718;2023-07-20T14:44:00;2.10;;;1.00;;
18239;SDS011;9244;50.828;4.718;2023-07-20T14:46:27;1.10;;;1.00;;
18239;SDS011;9244;50.828;4.718;2023-07-20T14:48:52;1.98;;;1.08;;
18239;SDS011;9244;50.828;4.718;2023-07-20T14:51:18;3.38;;;1.33;;
18239;SDS011;9244;50.828;4.718;2023-07-20T14:53:44;1.98;;;1.40;;
18239;SDS011;9244;50.828;4.718;2023-07-20T14:56:09;2.85;;;1.33;;
18239;SDS011;9244;50.828;4.718;2023-07-20T14:58:35;2.30;;;1.65;;
18239;SDS011;9244;50.828;4.718;2023-07-20T15:01:01;3.20;;;1.63;;
18239;SDS011;9244;50.828;4.718;2023-07-20T15:03:28;2.67;;;1.45;;
18239;SDS011;9244;50.828;4.718;2023-07-20T15:05:55;2.88;;;1.27;;
18239;SDS011;9244;50.828;4.718;2023-07-20T15:08:21;1.90;;;0.90;;
18239;SDS011;9244;50.828;4.718;2023-07-20T15:10:48;1.10;;;0.90;;
18239;SDS011;9244;50.828;4.718;2023-07-20T15:13:13;2.28;;;1.40;;
18239;SDS011;9244;50.828;4.718;2023-07-20T15:15:39;1.27;;;1.17;;
18239;SDS011;9244;50.828;4.718;2023-07-20T15:18:05;1.83;;;1.10;;
18239;SDS011;9244;50.828;4.718;2023-07-20T15:20:31;0.93;;;0.93;;
18239;SDS011;9244;50.828;4.718;2023-07-20T15:22:58;1.45;;;1.10;;